LFSG/EPL METAR and TAF weather

Enter ICAO airport designator
Station Type Date Time Source
LFSG METAR 2024/04/18 07:00 UTC NOAA

LFSG 180700Z AUTO 34007KT 310V010 9999 BKN015 BKN029 BKN040 03/01 Q1016


Station Type Date Time Source
LFSG Decoded METAR 2024/04/18 07:00 UTC NOAA

Station name not available
Apr 18, 2024 - 03:00 AM EDT / 2024.04.18 0700 UTC
Wind: from the NNW (340 degrees) at 8 MPH (7 KT) (direction variable):0
Visibility: greater than 7 mile(s):0
Sky conditions: mostly cloudy
Temperature: 37 F (3 C)
Dew Point: 33 F (1 C)
Relative Humidity: 86%
Pressure (altimeter): 30.00 in. Hg (1016 hPa)
ob: LFSG 180700Z AUTO 34007KT 310V010 9999 BKN015 BKN029 BKN040 03/01 Q1016
cycle: 7

Station Type Date Time Source
LFSG TAF UTC NOAA

Error!

Example: see airport list